Time;durP1;ratioP1;P1;durP2;ratioP2;P2;SDS_P1;SDS_P2;PMS_P1;PMS_P2;Temp;Humidity;BMP_temperature;BMP_pressure;BME280_temperature;BME280_humidity;BME280_pressure;Samples;Min_cycle;Max_cycle;Signal;HPM_P1;HPM_P2
2021/08/01 00:00:47;;;;;;;9.27;6.80;;;;;;;;;;10275117;28;20486;-59
2021/08/01 00:05:45;;;;;;;9.18;6.38;;;;;;;;;;10275607;28;20052;-60
2021/08/01 00:10:43;;;;;;;6.38;5.53;;;;;;;;;;10275225;28;20045;-59
2021/08/01 00:15:43;;;;;;;8.27;5.95;;;;;;;;;;10275488;28;20037;-58
2021/08/01 00:20:42;;;;;;;8.23;5.93;;;;;;;;;;10274735;28;20084;-59
2021/08/01 00:25:41;;;;;;;7.90;5.35;;;;;;;;;;10274465;28;20081;-59
2021/08/01 00:30:39;;;;;;;8.98;5.85;;;;;;;;;;10274803;28;20052;-59
2021/08/01 00:35:39;;;;;;;14.55;6.05;;;;;;;;;;10274668;28;20049;-59
2021/08/01 00:40:38;;;;;;;7.07;5.38;;;;;;;;;;10281876;28;20465;-58
2021/08/01 00:45:37;;;;;;;12.52;6.57;;;;;;;;;;10280297;28;20088;-59
2021/08/01 00:50:36;;;;;;;8.95;5.38;;;;;;;;;;10280924;28;20112;-59
2021/08/01 00:55:35;;;;;;;8.15;5.63;;;;;;;;;;10281522;28;20088;-59
2021/08/01 01:06:09;;;;;;;8.43;5.13;;;;;;;;;;10138908;28;20077;-58
2021/08/01 01:11:12;;;;;;;8.43;5.72;;;;;;;;;;10249791;28;20079;-58
2021/08/01 01:16:12;;;;;;;9.05;5.53;;;;;;;;;;10279423;28;20049;-58
2021/08/01 01:21:17;;;;;;;9.93;5.95;;;;;;;;;;10279029;28;20430;-59
2021/08/01 01:26:20;;;;;;;7.30;5.22;;;;;;;;;;10280306;28;20084;-59
2021/08/01 01:31:25;;;;;;;9.57;4.78;;;;;;;;;;10278701;28;20049;-58
2021/08/01 01:36:26;;;;;;;8.93;5.78;;;;;;;;;;10280087;28;20048;-61
2021/08/01 01:41:25;;;;;;;12.75;6.40;;;;;;;;;;10279328;28;20053;-59
2021/08/01 01:46:35;;;;;;;10.23;5.75;;;;;;;;;;10279852;28;20045;-59
2021/08/01 01:51:35;;;;;;;9.07;5.93;;;;;;;;;;10277818;28;20532;-59
2021/08/01 01:56:35;;;;;;;8.40;5.43;;;;;;;;;;10279185;28;20045;-58
2021/08/01 02:01:36;;;;;;;12.18;4.93;;;;;;;;;;10277655;28;20398;-59
2021/08/01 02:06:36;;;;;;;7.10;5.72;;;;;;;;;;10278280;28;20048;-59
2021/08/01 02:11:46;;;;;;;9.63;5.82;;;;;;;;;;10277409;28;20053;-59
2021/08/01 02:16:55;;;;;;;9.02;5.90;;;;;;;;;;10277216;28;20065;-60
2021/08/01 02:21:56;;;;;;;8.65;6.22;;;;;;;;;;10276518;28;20052;-59
2021/08/01 02:26:56;;;;;;;7.60;5.30;;;;;;;;;;10278095;28;20493;-59
2021/08/01 02:31:55;;;;;;;8.43;5.97;;;;;;;;;;10278167;28;20052;-59
2021/08/01 02:37:03;;;;;;;11.77;7.18;;;;;;;;;;10277248;28;20041;-59
2021/08/01 02:42:03;;;;;;;11.38;7.68;;;;;;;;;;10277747;28;20270;-60
2021/08/01 02:47:02;;;;;;;11.57;7.25;;;;;;;;;;10276028;28;20147;-59
2021/08/01 02:52:05;;;;;;;10.45;6.57;;;;;;;;;;10277207;28;20040;-59
2021/08/01 02:57:05;;;;;;;10.20;7.88;;;;;;;;;;10277077;28;20052;-59
2021/08/01 03:02:03;;;;;;;15.10;7.88;;;;;;;;;;10275898;28;20445;-59
2021/08/01 03:07:13;;;;;;;15.93;7.65;;;;;;;;;;10274663;28;20053;-59
2021/08/01 03:12:14;;;;;;;14.20;7.85;;;;;;;;;;10275557;28;20056;-59
2021/08/01 03:17:14;;;;;;;19.95;8.93;;;;;;;;;;10274932;28;20041;-59
2021/08/01 03:22:14;;;;;;;14.07;8.35;;;;;;;;;;10275723;28;20053;-59
2021/08/01 03:27:13;;;;;;;15.30;8.70;;;;;;;;;;10275574;28;20056;-59
2021/08/01 03:32:13;;;;;;;17.65;8.50;;;;;;;;;;10275277;28;20075;-60
2021/08/01 03:37:14;;;;;;;16.58;8.57;;;;;;;;;;10276034;28;20414;-59
2021/08/01 03:42:31;;;;;;;12.70;8.45;;;;;;;;;;10280206;28;20084;-59
2021/08/01 03:47:30;;;;;;;11.57;8.45;;;;;;;;;;10275807;28;20072;-60
2021/08/01 03:52:29;;;;;;;14.05;9.77;;;;;;;;;;10275506;28;20053;-59
2021/08/01 03:57:28;;;;;;;20.58;9.63;;;;;;;;;;10275802;28;20584;-59
2021/08/01 04:02:26;;;;;;;28.27;10.73;;;;;;;;;;10275513;28;20524;-60
2021/08/01 04:07:25;;;;;;;26.95;11.07;;;;;;;;;;10275522;28;20041;-58
2021/08/01 04:12:24;;;;;;;22.70;10.15;;;;;;;;;;10278544;28;20083;-59
2021/08/01 04:17:23;;;;;;;16.35;10.50;;;;;;;;;;10283360;28;20068;-59
2021/08/01 04:22:22;;;;;;;27.65;13.00;;;;;;;;;;10282329;28;20060;-60
2021/08/01 04:27:20;;;;;;;32.97;14.38;;;;;;;;;;10283027;28;20048;-59
2021/08/01 04:32:22;;;;;;;27.98;12.40;;;;;;;;;;10281794;28;20045;-59
2021/08/01 04:37:20;;;;;;;31.55;12.80;;;;;;;;;;10282528;28;20418;-60
2021/08/01 04:42:18;;;;;;;18.55;9.98;;;;;;;;;;10282411;28;20060;-59
2021/08/01 04:47:17;;;;;;;19.70;9.88;;;;;;;;;;10282110;28;20267;-59
2021/08/01 04:52:17;;;;;;;20.17;9.27;;;;;;;;;;10271873;28;20072;-60
2021/08/01 04:57:15;;;;;;;20.33;10.00;;;;;;;;;;10276195;28;20075;-58
2021/08/01 05:02:13;;;;;;;25.33;11.23;;;;;;;;;;10274159;28;20065;-60
2021/08/01 05:07:12;;;;;;;28.20;11.45;;;;;;;;;;10273605;28;20083;-59
2021/08/01 05:12:12;;;;;;;29.70;10.80;;;;;;;;;;10280601;28;20064;-60
2021/08/01 05:17:10;;;;;;;31.77;10.50;;;;;;;;;;10280597;28;20041;-60
2021/08/01 05:22:08;;;;;;;43.03;11.68;;;;;;;;;;10272179;28;20457;-60
2021/08/01 05:27:07;;;;;;;29.00;11.63;;;;;;;;;;10275493;28;20085;-59
2021/08/01 05:32:07;;;;;;;13.93;8.90;;;;;;;;;;10278531;28;20099;-60
2021/08/01 05:37:08;;;;;;;13.23;9.45;;;;;;;;;;10275820;28;20549;-60
2021/08/01 05:42:06;;;;;;;15.93;7.60;;;;;;;;;;10279548;28;20056;-60
2021/08/01 05:47:07;;;;;;;11.82;7.90;;;;;;;;;;10279723;28;20077;-60
2021/08/01 05:52:07;;;;;;;17.45;8.50;;;;;;;;;;10278331;28;20494;-60
2021/08/01 05:57:05;;;;;;;13.05;7.90;;;;;;;;;;10274171;28;20037;-60
2021/08/01 06:02:03;;;;;;;17.10;7.47;;;;;;;;;;10278505;28;20498;-59
2021/08/01 06:07:02;;;;;;;16.70;7.90;;;;;;;;;;10274200;28;20505;-60
2021/08/01 06:12:02;;;;;;;12.57;6.63;;;;;;;;;;10267384;28;20076;-60
2021/08/01 06:17:00;;;;;;;15.57;7.85;;;;;;;;;;10277069;28;20041;-59
2021/08/01 06:21:58;;;;;;;14.77;7.20;;;;;;;;;;10271536;28;20499;-60
2021/08/01 06:26:57;;;;;;;9.75;7.28;;;;;;;;;;10266204;28;20356;-60
2021/08/01 06:31:57;;;;;;;14.38;8.52;;;;;;;;;;10271994;28;20391;-60
2021/08/01 06:36:55;;;;;;;11.10;7.30;;;;;;;;;;10272816;28;20080;-60
2021/08/01 06:41:53;;;;;;;11.52;7.15;;;;;;;;;;10275462;28;20077;-60
2021/08/01 06:46:52;;;;;;;10.43;7.60;;;;;;;;;;10277191;28;20068;-60
2021/08/01 06:51:52;;;;;;;19.52;7.43;;;;;;;;;;10277120;28;20452;-60
2021/08/01 06:56:50;;;;;;;8.40;7.57;;;;;;;;;;10276995;28;20056;-60
2021/08/01 07:01:48;;;;;;;16.33;8.88;;;;;;;;;;10276740;28;20191;-60
2021/08/01 07:06:47;;;;;;;15.73;7.28;;;;;;;;;;10276299;28;20068;-60
2021/08/01 07:11:46;;;;;;;14.77;7.72;;;;;;;;;;10276456;28;20076;-60
2021/08/01 07:16:45;;;;;;;14.85;7.82;;;;;;;;;;10276332;28;20041;-62
2021/08/01 07:21:43;;;;;;;9.10;7.68;;;;;;;;;;10275683;28;20052;-60
2021/08/01 07:26:41;;;;;;;12.50;7.45;;;;;;;;;;10276115;28;20083;-60
2021/08/01 07:31:41;;;;;;;17.08;9.35;;;;;;;;;;10275964;28;20048;-60
2021/08/01 07:36:40;;;;;;;14.15;8.50;;;;;;;;;;10275716;28;20064;-60
2021/08/01 07:41:38;;;;;;;9.02;8.07;;;;;;;;;;10275082;28;20074;-60
2021/08/01 07:46:36;;;;;;;14.38;7.82;;;;;;;;;;10274921;28;20395;-61
2021/08/01 07:51:36;;;;;;;13.82;8.30;;;;;;;;;;10275476;28;20041;-60
2021/08/01 07:56:35;;;;;;;11.70;8.27;;;;;;;;;;10275316;28;20068;-60
2021/08/01 08:01:37;;;;;;;10.40;9.20;;;;;;;;;;10275392;28;20414;-60
2021/08/01 08:06:37;;;;;;;15.98;9.18;;;;;;;;;;10275165;28;20075;-60
2021/08/01 08:11:35;;;;;;;11.95;7.97;;;;;;;;;;10275101;28;20491;-59
2021/08/01 08:16:34;;;;;;;10.95;8.90;;;;;;;;;;10274794;28;20052;-60
2021/08/01 08:21:32;;;;;;;15.85;8.70;;;;;;;;;;10274435;28;20063;-60
2021/08/01 08:26:32;;;;;;;13.63;8.73;;;;;;;;;;10274614;28;20083;-60
2021/08/01 08:31:31;;;;;;;10.07;7.97;;;;;;;;;;10274162;28;20413;-60
2021/08/01 08:36:29;;;;;;;12.73;8.70;;;;;;;;;;10274689;28;20088;-59
2021/08/01 08:41:28;;;;;;;16.02;8.77;;;;;;;;;;10274698;28;20048;-59
2021/08/01 08:46:28;;;;;;;19.50;10.63;;;;;;;;;;10273576;28;20072;-60
2021/08/01 08:51:26;;;;;;;11.73;8.77;;;;;;;;;;10274121;28;20079;-59
2021/08/01 08:56:25;;;;;;;16.75;9.52;;;;;;;;;;10274428;28;20056;-59
2021/08/01 09:01:23;;;;;;;14.93;9.68;;;;;;;;;;10274236;28;20067;-59
2021/08/01 09:06:23;;;;;;;15.40;9.50;;;;;;;;;;10262923;28;20123;-60
2021/08/01 09:11:21;;;;;;;11.20;9.55;;;;;;;;;;10273514;28;20076;-60
2021/08/01 09:16:20;;;;;;;14.23;8.95;;;;;;;;;;10275626;28;20107;-60
2021/08/01 09:21:39;;;;;;;17.63;11.10;;;;;;;;;;10276312;28;20108;-60
2021/08/01 09:26:45;;;;;;;16.80;12.38;;;;;;;;;;10271520;28;20076;-60
2021/08/01 09:31:44;;;;;;;18.77;9.82;;;;;;;;;;10276791;28;20072;-60
2021/08/01 09:36:54;;;;;;;18.02;10.30;;;;;;;;;;10278819;28;20077;-59
2021/08/01 09:42:01;;;;;;;16.15;11.20;;;;;;;;;;10280173;28;20410;-59
2021/08/01 09:47:00;;;;;;;17.63;9.73;;;;;;;;;;10280283;28;20473;-60
2021/08/01 09:51:59;;;;;;;14.48;10.23;;;;;;;;;;10280172;28;20518;-59
2021/08/01 09:56:59;;;;;;;17.00;12.80;;;;;;;;;;10279310;28;20044;-60
2021/08/01 10:01:58;;;;;;;14.68;10.25;;;;;;;;;;10279756;28;20516;-59
2021/08/01 10:07:03;;;;;;;14.60;10.50;;;;;;;;;;10279157;28;20518;-59
2021/08/01 10:12:04;;;;;;;14.43;10.02;;;;;;;;;;10278624;28;20426;-60
2021/08/01 10:17:03;;;;;;;11.55;10.10;;;;;;;;;;10268705;28;20084;-59
2021/08/01 10:22:03;;;;;;;20.27;10.20;;;;;;;;;;10265119;28;20073;-59
2021/08/01 10:27:05;;;;;;;13.52;11.73;;;;;;;;;;10276116;28;20080;-61
2021/08/01 10:32:05;;;;;;;15.57;10.75;;;;;;;;;;10278517;28;20040;-60
2021/08/01 10:37:05;;;;;;;17.48;11.20;;;;;;;;;;10266833;28;20069;-60
2021/08/01 10:42:07;;;;;;;14.60;10.25;;;;;;;;;;10276371;28;20536;-60
2021/08/01 10:47:07;;;;;;;18.23;10.55;;;;;;;;;;10256427;28;20069;-60
2021/08/01 10:52:06;;;;;;;19.90;12.13;;;;;;;;;;10267310;28;20510;-60
2021/08/01 10:57:22;;;;;;;18.20;11.38;;;;;;;;;;10277305;28;20048;-60
2021/08/01 11:02:23;;;;;;;14.70;10.15;;;;;;;;;;10277287;28;20093;-60
2021/08/01 11:07:40;;;;;;;18.73;11.48;;;;;;;;;;10270857;28;20081;-58
2021/08/01 11:12:38;;;;;;;13.52;11.18;;;;;;;;;;10268023;28;20045;-61
2021/08/01 11:17:56;;;;;;;17.27;11.30;;;;;;;;;;10274529;28;20072;-60
2021/08/01 11:22:56;;;;;;;12.43;10.68;;;;;;;;;;10256695;28;20089;-60
2021/08/01 11:28:21;;;;;;;12.30;11.00;;;;;;;;;;10255699;28;20494;-60
2021/08/01 11:33:28;;;;;;;16.98;10.73;;;;;;;;;;10254481;28;20492;-60
2021/08/01 11:38:28;;;;;;;16.33;10.18;;;;;;;;;;10270766;28;20056;-61
2021/08/01 11:43:26;;;;;;;18.50;11.07;;;;;;;;;;10257378;28;20060;-61
2021/08/01 11:48:25;;;;;;;14.10;10.85;;;;;;;;;;10266976;28;20110;-60
2021/08/01 11:53:23;;;;;;;14.25;9.60;;;;;;;;;;10274176;28;20072;-61
2021/08/01 11:58:23;;;;;;;16.15;10.63;;;;;;;;;;10276043;28;20048;-61
2021/08/01 12:03:25;;;;;;;40.30;22.08;;;;;;;;;;10273818;28;20089;-61
2021/08/01 12:08:29;;;;;;;36.88;20.52;;;;;;;;;;10271776;28;20072;-61
2021/08/01 12:13:29;;;;;;;19.05;15.23;;;;;;;;;;10270051;28;20083;-61
2021/08/01 12:18:28;;;;;;;48.58;32.65;;;;;;;;;;10273874;28;20755;-61
2021/08/01 12:23:38;;;;;;;15.35;13.88;;;;;;;;;;10274936;28;20064;-60
2021/08/01 12:28:41;;;;;;;17.05;11.95;;;;;;;;;;10275690;28;20080;-61
2021/08/01 12:33:42;;;;;;;13.75;10.60;;;;;;;;;;10278000;28;20549;-61
2021/08/01 12:38:40;;;;;;;14.27;9.63;;;;;;;;;;10282681;28;20437;-61
2021/08/01 12:43:38;;;;;;;12.25;9.15;;;;;;;;;;10282581;28;20049;-61
2021/08/01 12:48:38;;;;;;;14.00;11.63;;;;;;;;;;10280530;28;20080;-61
2021/08/01 12:53:37;;;;;;;16.33;10.48;;;;;;;;;;10282460;28;20052;-62
2021/08/01 12:58:36;;;;;;;12.77;10.85;;;;;;;;;;10282377;28;20049;-61
2021/08/01 13:03:35;;;;;;;15.13;9.95;;;;;;;;;;10282151;28;20045;-61
2021/08/01 13:08:39;;;;;;;11.80;8.63;;;;;;;;;;10281917;28;20084;-61
2021/08/01 13:13:49;;;;;;;13.45;10.57;;;;;;;;;;10280894;28;20087;-61
2021/08/01 13:18:48;;;;;;;12.57;11.35;;;;;;;;;;10281668;28;20044;-62
2021/08/01 13:23:48;;;;;;;16.20;9.82;;;;;;;;;;10280715;28;20525;-63
2021/08/01 13:28:50;;;;;;;9.27;8.45;;;;;;;;;;10281141;28;20090;-63
2021/08/01 13:33:48;;;;;;;;;;;;;;;;;;10280353;28;20049;-63
2021/08/01 13:38:58;;;;;;;11.80;9.18;;;;;;;;;;10280734;28;19959;-62
2021/08/01 13:44:09;;;;;;;11.55;8.88;;;;;;;;;;10279535;28;20052;-62
2021/08/01 13:49:07;;;;;;;12.13;9.68;;;;;;;;;;10269470;28;20068;-61
2021/08/01 13:54:07;;;;;;;14.60;7.93;;;;;;;;;;10263244;28;20550;-62
2021/08/01 13:59:05;;;;;;;12.40;8.85;;;;;;;;;;10258871;28;20060;-60
2021/08/01 14:04:10;;;;;;;9.50;8.60;;;;;;;;;;10258338;28;20065;-62
2021/08/01 14:09:10;;;;;;;11.98;9.50;;;;;;;;;;10255169;28;20072;-62
2021/08/01 14:14:08;;;;;;;10.90;9.35;;;;;;;;;;10257814;28;20100;-61
2021/08/01 14:19:06;;;;;;;10.35;8.02;;;;;;;;;;10259279;28;20063;-61
2021/08/01 14:24:05;;;;;;;12.38;8.40;;;;;;;;;;10255370;28;20087;-62
2021/08/01 14:29:05;;;;;;;18.33;8.57;;;;;;;;;;10258661;28;20167;-61
2021/08/01 14:34:04;;;;;;;10.07;7.53;;;;;;;;;;10249845;28;20079;-61
2021/08/01 14:39:05;;;;;;;10.35;9.00;;;;;;;;;;10257527;28;20079;-62
2021/08/01 14:44:08;;;;;;;9.57;8.77;;;;;;;;;;10257338;28;20076;-61
2021/08/01 14:49:09;;;;;;;10.63;7.47;;;;;;;;;;10257227;28;20084;-62
2021/08/01 14:54:08;;;;;;;12.57;10.82;;;;;;;;;;10257841;28;20075;-62
2021/08/01 14:59:08;;;;;;;12.40;8.25;;;;;;;;;;10238565;28;20048;-62
2021/08/01 15:04:12;;;;;;;14.32;8.75;;;;;;;;;;10237642;28;20045;-63
2021/08/01 15:09:14;;;;;;;7.90;7.07;;;;;;;;;;10274755;28;20087;-60
2021/08/01 15:14:18;;;;;;;14.25;10.13;;;;;;;;;;10275377;28;20049;-61
2021/08/01 15:19:19;;;;;;;7.85;7.00;;;;;;;;;;10277089;28;20079;-61
2021/08/01 15:24:30;;;;;;;14.65;7.20;;;;;;;;;;10260880;28;20068;-59
2021/08/01 15:29:31;;;;;;;17.20;6.73;;;;;;;;;;10260414;28;20140;-61
2021/08/01 15:34:29;;;;;;;8.35;6.97;;;;;;;;;;10267485;28;20334;-63
2021/08/01 15:39:28;;;;;;;11.93;7.38;;;;;;;;;;10260758;28;20492;-60
2021/08/01 15:44:27;;;;;;;8.40;7.07;;;;;;;;;;10263097;28;20505;-61
2021/08/01 15:49:27;;;;;;;12.63;8.35;;;;;;;;;;10250064;28;20073;-61
2021/08/01 15:54:28;;;;;;;7.03;6.43;;;;;;;;;;10253435;28;20084;-61
2021/08/01 15:59:29;;;;;;;10.15;7.40;;;;;;;;;;10247310;28;20044;-62
2021/08/01 16:04:33;;;;;;;11.40;8.85;;;;;;;;;;10252072;28;20083;-61
2021/08/01 16:09:35;;;;;;;13.45;9.57;;;;;;;;;;10259156;28;20616;-61
2021/08/01 16:14:34;;;;;;;9.23;8.30;;;;;;;;;;10273361;28;20522;-60
2021/08/01 16:19:34;;;;;;;8.50;7.43;;;;;;;;;;10247998;28;20091;-61
2021/08/01 16:24:33;;;;;;;9.70;8.55;;;;;;;;;;10239250;28;20085;-59
2021/08/01 16:29:32;;;;;;;13.23;11.57;;;;;;;;;;10254521;28;20533;-59
2021/08/01 16:34:31;;;;;;;19.40;11.00;;;;;;;;;;10267364;28;20518;-59
2021/08/01 16:39:34;;;;;;;14.75;12.07;;;;;;;;;;10263767;28;20439;-61
2021/08/01 16:44:36;;;;;;;17.15;9.65;;;;;;;;;;10260720;28;20483;-61
2021/08/01 16:49:41;;;;;;;17.13;10.32;;;;;;;;;;10263931;28;20577;-60
2021/08/01 16:54:47;;;;;;;22.85;16.98;;;;;;;;;;10260860;28;20077;-58
2021/08/01 16:59:48;;;;;;;15.07;12.15;;;;;;;;;;10267025;28;20479;-60
2021/08/01 17:04:46;;;;;;;14.75;10.18;;;;;;;;;;10258628;28;20036;-60
2021/08/01 17:09:46;;;;;;;17.33;11.40;;;;;;;;;;10278093;28;20501;-60
2021/08/01 17:14:45;;;;;;;17.77;13.18;;;;;;;;;;10276668;28;20110;-60
2021/08/01 17:19:44;;;;;;;15.00;13.40;;;;;;;;;;10270350;28;20084;-60
2021/08/01 17:24:43;;;;;;;15.63;13.38;;;;;;;;;;10257130;28;20080;-61
2021/08/01 17:29:44;;;;;;;17.00;12.38;;;;;;;;;;10275056;28;20080;-62
2021/08/01 17:34:43;;;;;;;14.82;10.13;;;;;;;;;;10276443;28;20067;-62
2021/08/01 17:39:42;;;;;;;14.20;9.70;;;;;;;;;;10277768;28;20056;-61
2021/08/01 17:44:42;;;;;;;15.65;11.00;;;;;;;;;;10277058;28;20506;-62
2021/08/01 17:49:42;;;;;;;18.80;11.85;;;;;;;;;;10267163;28;20083;-61
2021/08/01 17:54:41;;;;;;;16.85;12.10;;;;;;;;;;10270753;28;20062;-62
2021/08/01 17:59:40;;;;;;;15.45;9.20;;;;;;;;;;10239797;28;20084;-61
2021/08/01 18:04:39;;;;;;;16.75;8.77;;;;;;;;;;10246960;28;20482;-62
2021/08/01 18:09:44;;;;;;;16.35;8.93;;;;;;;;;;10275827;28;20076;-61
2021/08/01 18:14:47;;;;;;;10.45;8.95;;;;;;;;;;10278682;28;20045;-62
2021/08/01 18:19:45;;;;;;;13.98;8.20;;;;;;;;;;10271678;28;20088;-62
2021/08/01 18:24:46;;;;;;;11.57;8.10;;;;;;;;;;10275058;28;20060;-60
2021/08/01 18:29:45;;;;;;;8.15;7.32;;;;;;;;;;10277281;28;20045;-60
2021/08/01 18:34:44;;;;;;;11.50;8.02;;;;;;;;;;10268386;28;20483;-62
2021/08/01 18:39:43;;;;;;;18.02;8.50;;;;;;;;;;10277655;28;20453;-62
2021/08/01 18:44:46;;;;;;;12.18;8.18;;;;;;;;;;10275691;28;20037;-62
2021/08/01 18:49:47;;;;;;;10.05;8.63;;;;;;;;;;10272687;28;20083;-61
2021/08/01 18:54:45;;;;;;;10.65;7.80;;;;;;;;;;10264197;28;20084;-61
2021/08/01 18:59:47;;;;;;;15.90;7.63;;;;;;;;;;10275319;28;20076;-61
2021/08/01 19:04:45;;;;;;;12.60;7.32;;;;;;;;;;10268676;28;20064;-60
2021/08/01 19:09:44;;;;;;;11.90;7.38;;;;;;;;;;10276493;28;20084;-61
2021/08/01 19:14:42;;;;;;;11.73;6.80;;;;;;;;;;10276400;28;20037;-60
2021/08/01 19:19:47;;;;;;;9.15;6.65;;;;;;;;;;10276130;28;20040;-59
2021/08/01 19:24:51;;;;;;;11.55;7.07;;;;;;;;;;10277045;28;20395;-60
2021/08/01 19:29:52;;;;;;;10.43;6.25;;;;;;;;;;10266699;28;20088;-60
2021/08/01 19:34:56;;;;;;;15.32;9.98;;;;;;;;;;10254901;28;20049;-59
2021/08/01 19:39:56;;;;;;;9.20;7.45;;;;;;;;;;10272609;28;20044;-60
2021/08/01 19:44:54;;;;;;;10.93;7.63;;;;;;;;;;10273717;28;20040;-60
2021/08/01 19:49:54;;;;;;;9.63;7.38;;;;;;;;;;10274250;28;20076;-59
2021/08/01 19:54:53;;;;;;;9.93;7.05;;;;;;;;;;10275248;28;20049;-60
2021/08/01 19:59:52;;;;;;;14.43;8.32;;;;;;;;;;10275060;28;20426;-61
2021/08/01 20:04:51;;;;;;;11.23;8.27;;;;;;;;;;10273724;28;20418;-61
2021/08/01 20:09:51;;;;;;;12.30;8.75;;;;;;;;;;10275384;28;20095;-61
2021/08/01 20:14:49;;;;;;;9.90;8.13;;;;;;;;;;10275076;28;21491;-60
2021/08/01 20:19:48;;;;;;;12.93;8.88;;;;;;;;;;10275127;28;20049;-60
2021/08/01 20:24:47;;;;;;;9.75;8.45;;;;;;;;;;10274559;28;20084;-59
2021/08/01 20:29:46;;;;;;;10.77;7.82;;;;;;;;;;10273784;28;20529;-60
2021/08/01 20:34:47;;;;;;;9.63;8.55;;;;;;;;;;10274696;28;20052;-59
2021/08/01 20:39:45;;;;;;;10.30;8.93;;;;;;;;;;10274510;28;20052;-60
2021/08/01 20:44:43;;;;;;;13.25;8.88;;;;;;;;;;10273306;28;20446;-60
2021/08/01 20:49:43;;;;;;;15.77;9.23;;;;;;;;;;10274091;28;20080;-59
2021/08/01 20:54:41;;;;;;;17.40;9.02;;;;;;;;;;10278095;28;20049;-60
2021/08/01 20:59:40;;;;;;;15.38;9.30;;;;;;;;;;10281594;28;20102;-59
2021/08/01 21:04:38;;;;;;;13.77;9.80;;;;;;;;;;10281585;28;20079;-60
2021/08/01 21:09:38;;;;;;;13.93;8.63;;;;;;;;;;10281061;28;20072;-60
2021/08/01 21:14:36;;;;;;;12.38;9.35;;;;;;;;;;10281770;28;20041;-59
2021/08/01 21:19:35;;;;;;;14.20;8.85;;;;;;;;;;10281249;28;20057;-61
2021/08/01 21:24:33;;;;;;;10.57;8.80;;;;;;;;;;10280748;28;20155;-60
2021/08/01 21:29:33;;;;;;;12.82;9.30;;;;;;;;;;10280044;28;20068;-61
2021/08/01 21:34:31;;;;;;;13.23;9.40;;;;;;;;;;10278235;28;20418;-61
2021/08/01 21:39:30;;;;;;;13.70;8.95;;;;;;;;;;10279815;28;20095;-62
2021/08/01 21:44:28;;;;;;;12.90;8.27;;;;;;;;;;10277277;28;20045;-60
2021/08/01 21:49:28;;;;;;;17.00;9.00;;;;;;;;;;10278307;28;20084;-61
2021/08/01 21:54:26;;;;;;;11.70;8.10;;;;;;;;;;10279897;28;20056;-61
2021/08/01 21:59:24;;;;;;;10.68;8.77;;;;;;;;;;10279054;28;20071;-61
2021/08/01 22:04:28;;;;;;;13.07;9.43;;;;;;;;;;10278208;28;20502;-61
2021/08/01 22:09:30;;;;;;;13.68;8.52;;;;;;;;;;10278014;28;20068;-61
2021/08/01 22:14:29;;;;;;;13.15;8.25;;;;;;;;;;10278677;28;20529;-60
2021/08/01 22:19:28;;;;;;;12.00;7.78;;;;;;;;;;10277316;28;20048;-61
2021/08/01 22:24:26;;;;;;;11.98;8.55;;;;;;;;;;10278353;28;20052;-61
2021/08/01 22:29:26;;;;;;;8.05;7.30;;;;;;;;;;10277908;28;20052;-61
2021/08/01 22:34:25;;;;;;;14.13;8.13;;;;;;;;;;10277576;28;20071;-61
2021/08/01 22:39:25;;;;;;;10.52;8.13;;;;;;;;;;10277499;28;20064;-61
2021/08/01 22:44:23;;;;;;;10.93;8.07;;;;;;;;;;10277952;28;20053;-61
2021/08/01 22:49:24;;;;;;;12.30;7.47;;;;;;;;;;10278311;28;20052;-61
2021/08/01 22:54:24;;;;;;;12.23;7.60;;;;;;;;;;10276991;28;20510;-61
2021/08/01 22:59:23;;;;;;;10.45;7.50;;;;;;;;;;10276796;28;20056;-61
2021/08/01 23:04:26;;;;;;;8.77;6.22;;;;;;;;;;10276603;28;20041;-61
2021/08/01 23:09:27;;;;;;;15.05;7.93;;;;;;;;;;10276397;28;20057;-61
2021/08/01 23:14:27;;;;;;;11.85;7.97;;;;;;;;;;10275085;28;20045;-61
2021/08/01 23:19:29;;;;;;;11.45;8.18;;;;;;;;;;10275334;28;20071;-61
2021/08/01 23:24:33;;;;;;;16.23;7.20;;;;;;;;;;10276060;28;20536;-62
2021/08/01 23:29:31;;;;;;;15.25;7.35;;;;;;;;;;10275641;28;20049;-61
2021/08/01 23:34:34;;;;;;;9.30;7.18;;;;;;;;;;10275471;28;20083;-61
2021/08/01 23:39:33;;;;;;;13.25;7.45;;;;;;;;;;10276003;28;20049;-61
2021/08/01 23:44:32;;;;;;;8.45;7.65;;;;;;;;;;10275309;28;20049;-62
2021/08/01 23:49:32;;;;;;;14.38;6.82;;;;;;;;;;10275732;28;20485;-62
2021/08/01 23:54:50;;;;;;;10.20;7.25;;;;;;;;;;10275165;28;20111;-62
